Time;durP1;ratioP1;P1;durP2;ratioP2;P2;SDS_P1;SDS_P2;PMS_P1;PMS_P2;Temp;Humidity;BMP_temperature;BMP_pressure;BME280_temperature;BME280_humidity;BME280_pressure;Samples;Min_cycle;Max_cycle;Signal;HPM_P1;HPM_P2
2023/04/18 00:00:36;;;;;;;6.30;4.65;;;;;;;10.56;75.25;98285.34;6100386;23;20030;-93
2023/04/18 00:03:03;;;;;;;7.50;5.32;;;;;;;10.74;74.41;98299.78;6100312;23;20018;-94
2023/04/18 00:05:29;;;;;;;7.25;4.88;;;;;;;10.72;74.49;98283.03;6099983;23;20030;-93
2023/04/18 00:07:55;;;;;;;6.70;4.82;;;;;;;10.75;74.75;98290.00;6099563;23;20007;-93
2023/04/18 00:10:23;;;;;;;6.28;4.40;;;;;;;10.72;75.23;98280.34;6099163;23;20057;-93
2023/04/18 00:12:49;;;;;;;9.35;4.90;;;;;;;10.76;74.45;98283.78;6098755;23;20018;-93
2023/04/18 00:15:14;;;;;;;7.03;4.57;;;;;;;10.78;75.14;98285.47;6097195;23;20022;-93
2023/04/18 00:17:40;;;;;;;6.13;4.80;;;;;;;10.79;75.58;98287.19;6099134;23;20345;-93
2023/04/18 00:20:09;;;;;;;6.95;4.43;;;;;;;10.73;77.00;98281.22;6099815;23;20445;-94
2023/04/18 00:22:35;;;;;;;;;;;;;;;10.82;77.25;98307.47;6100063;23;20019;-94
2023/04/18 00:25:01;;;;;;;7.93;4.70;;;;;;;10.77;78.08;98289.03;6100092;23;19913;-93
2023/04/18 00:27:28;;;;;;;6.93;4.60;;;;;;;10.59;78.72;98274.59;6099514;23;20026;-94
2023/04/18 00:29:54;;;;;;;6.95;4.40;;;;;;;10.71;79.66;98296.34;6101721;23;20323;-94
2023/04/18 00:32:20;;;;;;;6.20;4.82;;;;;;;10.62;80.48;98292.22;6100157;23;20024;-92
2023/04/18 00:34:46;;;;;;;7.35;4.95;;;;;;;10.65;80.65;98310.75;6102073;23;20464;-93
2023/04/18 00:37:12;;;;;;;7.03;4.90;;;;;;;10.51;81.56;98289.09;6100244;23;20026;-92
2023/04/18 00:39:38;;;;;;;7.25;5.05;;;;;;;10.47;81.74;98294.53;6101526;23;20022;-94
2023/04/18 00:42:04;;;;;;;9.00;5.00;;;;;;;10.38;82.29;98280.66;6101616;23;20019;-92
2023/04/18 00:44:31;;;;;;;8.13;5.50;;;;;;;10.35;83.44;98286.94;6101184;23;20034;-92
2023/04/18 00:46:57;;;;;;;9.07;5.68;;;;;;;10.18;84.19;98274.19;6100893;23;20052;-93
2023/04/18 00:49:24;;;;;;;7.45;5.20;;;;;;;10.21;84.32;98284.75;6100942;23;20018;-93
2023/04/18 00:51:50;;;;;;;8.23;5.47;;;;;;;10.10;85.31;98278.88;6100978;23;20061;-93
2023/04/18 00:54:17;;;;;;;7.55;5.00;;;;;;;10.23;86.24;98297.94;6099585;23;20081;-92
2023/04/18 00:56:44;;;;;;;7.80;5.07;;;;;;;10.02;86.81;98292.44;6099995;23;20029;-93
2023/04/18 00:59:10;;;;;;;8.45;5.50;;;;;;;9.81;88.21;98258.59;6101483;23;20027;-93
2023/04/18 01:01:38;;;;;;;7.05;4.78;;;;;;;10.02;88.97;98308.38;6101438;23;20074;-94
2023/04/18 01:04:05;;;;;;;7.18;5.43;;;;;;;9.85;89.44;98279.69;6101344;23;20002;-93
2023/04/18 01:06:31;;;;;;;7.72;4.97;;;;;;;9.88;89.98;98281.38;6101344;23;20022;-93
2023/04/18 01:08:57;;;;;;;8.50;5.10;;;;;;;9.80;90.11;98272.78;6100339;23;20445;-93
2023/04/18 01:11:23;;;;;;;7.50;5.30;;;;;;;9.86;89.82;98291.19;6101888;23;20464;-94
2023/04/18 01:14:00;;;;;;;8.93;5.10;;;;;;;9.81;90.42;98286.00;6100837;23;20022;-94
2023/04/18 01:16:26;;;;;;;7.72;5.05;;;;;;;9.93;90.21;98298.06;6100866;23;20023;-93
2023/04/18 01:18:54;;;;;;;8.07;4.70;;;;;;;9.84;90.75;98274.41;6100865;23;20022;-93
2023/04/18 01:21:20;;;;;;;6.82;4.40;;;;;;;9.83;89.62;98272.69;6100684;23;20022;-93
2023/04/18 01:23:47;;;;;;;8.05;5.20;;;;;;;9.76;85.40;98247.25;6100998;23;20022;-93
2023/04/18 01:26:15;;;;;;;6.38;4.55;;;;;;;10.03;84.75;98256.09;6100614;23;20037;-93
2023/04/18 01:28:40;;;;;;;7.82;5.07;;;;;;;10.22;80.90;98243.09;6101602;23;20073;-93
2023/04/18 01:31:06;;;;;;;6.88;4.47;;;;;;;10.41;79.56;98270.81;6100301;23;20022;-94
2023/04/18 01:33:32;;;;;;;6.32;4.97;;;;;;;10.54;82.25;98279.22;6100082;23;20075;-92
2023/04/18 01:35:58;;;;;;;8.27;5.47;;;;;;;10.44;78.99;98238.78;6098692;23;20025;-93
2023/04/18 01:38:24;;;;;;;6.65;4.80;;;;;;;10.70;81.28;98279.53;6100070;23;20022;-93
2023/04/18 01:40:50;;;;;;;5.93;4.18;;;;;;;10.42;81.89;98232.66;6101354;23;20022;-94
2023/04/18 01:43:17;;;;;;;5.68;4.25;;;;;;;10.40;83.35;98239.81;6100862;23;20018;-93
2023/04/18 01:45:43;;;;;;;6.95;4.15;;;;;;;10.57;83.62;98264.94;6100752;23;20028;-93
2023/04/18 01:48:09;;;;;;;6.93;4.15;;;;;;;10.35;85.39;98238.25;6100903;23;20022;-93
2023/04/18 01:50:35;;;;;;;5.78;4.40;;;;;;;10.36;86.66;98247.94;6100580;23;20030;-94
2023/04/18 01:53:01;;;;;;;6.85;4.50;;;;;;;10.42;87.34;98264.56;6100676;23;20051;-93
2023/04/18 01:55:27;;;;;;;7.88;4.53;;;;;;;10.33;88.41;98254.25;6100943;23;20022;-93
2023/04/18 01:57:53;;;;;;;6.82;4.43;;;;;;;10.18;88.14;98225.50;6099884;23;20085;-94
2023/04/18 02:00:23;;;;;;;7.07;5.47;;;;;;;10.25;87.82;98237.66;6101740;23;20050;-92
2023/04/18 02:02:49;;;;;;;7.53;5.63;;;;;;;10.41;88.58;98268.16;6101228;23;20018;-94
2023/04/18 02:05:15;;;;;;;9.48;5.22;;;;;;;10.17;89.28;98229.06;6100049;23;20022;-94
2023/04/18 02:07:41;;;;;;;8.10;5.03;;;;;;;10.15;89.29;98236.22;6101133;23;20021;-93
2023/04/18 02:10:09;;;;;;;7.72;5.30;;;;;;;10.05;85.16;98220.59;6103415;23;20041;-93
2023/04/18 02:12:35;;;;;;;6.80;5.03;;;;;;;10.40;84.37;98268.19;6101910;23;20113;-94
2023/04/18 02:15:01;;;;;;;6.57;5.00;;;;;;;10.38;84.46;98276.19;6099759;23;20081;-94
2023/04/18 02:17:29;;;;;;;9.77;5.82;;;;;;;10.17;81.36;98229.06;6101156;23;20029;-93
2023/04/18 02:19:55;;;;;;;7.50;5.32;;;;;;;10.24;80.76;98223.50;6100554;23;20018;-93
2023/04/18 02:22:21;;;;;;;8.60;5.85;;;;;;;10.51;81.74;98262.50;6100465;23;20029;-94
2023/04/18 02:24:46;;;;;;;8.18;5.07;;;;;;;10.31;81.31;98228.66;6100267;23;20468;-94
2023/04/18 02:27:12;;;;;;;7.03;4.85;;;;;;;10.37;83.52;98244.38;6103748;23;20453;-93
2023/04/18 02:29:38;;;;;;;8.30;5.03;;;;;;;10.38;84.22;98251.41;6101555;23;20120;-93
2023/04/18 02:32:05;;;;;;;6.75;5.10;;;;;;;10.26;84.71;98245.59;6100794;23;20014;-93
2023/04/18 02:34:32;;;;;;;7.22;4.70;;;;;;;10.26;86.93;98258.00;6101697;23;20117;-94
2023/04/18 02:36:58;;;;;;;7.60;4.97;;;;;;;10.25;87.61;98274.84;6103090;23;20323;-92
2023/04/18 02:39:24;;;;;;;7.47;5.13;;;;;;;9.90;87.89;98212.28;6101494;23;20113;-92
2023/04/18 02:41:50;;;;;;;7.70;4.78;;;;;;;9.83;88.82;98215.13;6102067;23;20026;-93
2023/04/18 02:44:16;;;;;;;6.95;4.93;;;;;;;10.01;89.22;98256.16;6103404;23;20018;-94
2023/04/18 02:46:41;;;;;;;9.15;5.28;;;;;;;9.95;89.93;98245.72;6101195;23;20085;-94
2023/04/18 02:49:07;;;;;;;6.78;5.20;;;;;;;9.82;91.65;98231.13;6101811;23;20046;-93
2023/04/18 02:51:35;;;;;;;8.38;5.57;;;;;;;9.74;92.00;98225.22;6100696;23;20032;-94
2023/04/18 02:54:05;;;;;;;7.43;5.28;;;;;;;9.69;93.39;98219.16;6106035;23;20114;-94
2023/04/18 02:56:38;;;;;;;7.30;4.97;;;;;;;9.73;93.68;98231.41;6104184;23;20028;-93
2023/04/18 02:59:04;;;;;;;8.23;5.50;;;;;;;9.70;93.91;98240.34;6099615;23;20352;-93
2023/04/18 03:01:30;;;;;;;8.10;4.63;;;;;;;9.75;94.29;98249.03;6099935;23;20057;-92
2023/04/18 03:03:56;;;;;;;8.52;5.10;;;;;;;9.62;94.33;98237.94;6100771;23;20038;-93
2023/04/18 03:06:22;;;;;;;11.57;5.15;;;;;;;9.51;95.48;98232.09;6099458;23;20018;-94
2023/04/18 03:08:49;;;;;;;7.35;5.32;;;;;;;9.50;95.36;98237.44;6100587;23;20025;-94
2023/04/18 03:11:15;;;;;;;7.43;5.00;;;;;;;9.55;95.23;98249.66;6101759;23;20109;-92
2023/04/18 03:13:41;;;;;;;8.93;5.15;;;;;;;9.45;96.73;98238.50;6101050;23;20425;-93
2023/04/18 03:16:07;;;;;;;8.48;5.63;;;;;;;9.27;97.38;98217.81;6100430;23;20334;-93
2023/04/18 03:18:33;;;;;;;6.75;4.80;;;;;;;9.30;97.05;98219.50;6099414;23;20022;-93
2023/04/18 03:20:59;;;;;;;10.15;5.32;;;;;;;9.50;96.37;98241.00;6100939;23;20023;-94
2023/04/18 03:23:25;;;;;;;8.30;5.18;;;;;;;9.57;96.44;98249.63;6100882;23;20021;-93
2023/04/18 03:25:54;;;;;;;10.48;5.55;;;;;;;9.31;95.71;98205.34;6100489;23;20101;-92
2023/04/18 03:28:23;;;;;;;9.25;5.25;;;;;;;9.49;95.41;98223.31;6101008;23;20341;-93
2023/04/18 03:30:49;;;;;;;7.45;5.38;;;;;;;9.61;95.99;98235.34;6124301;23;20070;-93
2023/04/18 03:33:16;;;;;;;8.77;5.57;;;;;;;9.46;94.19;98220.78;6101483;23;20014;-93
2023/04/18 03:35:41;;;;;;;7.35;5.07;;;;;;;9.70;92.76;98240.34;6099267;23;20033;-93
2023/04/18 03:38:07;;;;;;;8.68;5.32;;;;;;;9.65;92.08;98227.25;6099672;23;20027;-93
2023/04/18 03:40:33;;;;;;;6.82;4.93;;;;;;;9.68;91.70;98220.09;6099825;23;20023;-93
2023/04/18 03:43:00;;;;;;;7.38;5.25;;;;;;;9.81;92.87;98242.66;6100754;23;20024;-93
2023/04/18 03:45:26;;;;;;;6.75;4.82;;;;;;;9.77;93.17;98236.56;6099427;23;20019;-93
2023/04/18 03:47:52;;;;;;;8.55;5.03;;;;;;;9.82;92.11;98244.38;6100269;23;20445;-93
2023/04/18 03:50:18;;;;;;;6.72;4.82;;;;;;;9.64;92.24;98209.56;6100123;23;20026;-93
2023/04/18 03:52:44;;;;;;;6.85;5.05;;;;;;;9.72;92.46;98217.28;6099902;23;20089;-93
2023/04/18 03:55:10;;;;;;;8.05;5.00;;;;;;;9.69;92.71;98225.31;6100066;23;20084;-92
2023/04/18 03:57:36;;;;;;;8.63;5.00;;;;;;;9.64;93.29;98217.50;6100672;23;20152;-92
2023/04/18 04:00:06;;;;;;;9.23;5.57;;;;;;;9.85;93.49;98261.09;6100991;23;20022;-92
2023/04/18 04:02:32;;;;;;;9.10;5.30;;;;;;;9.75;94.40;98250.81;6102113;23;20018;-93
2023/04/18 04:04:58;;;;;;;9.32;5.45;;;;;;;9.77;94.27;98256.97;6102561;23;20125;-94
2023/04/18 04:07:24;;;;;;;7.53;5.32;;;;;;;9.84;95.27;98256.69;6103500;23;20023;-94
2023/04/18 04:09:50;;;;;;;9.25;5.50;;;;;;;9.83;96.29;98262.06;6102935;23;20085;-92
2023/04/18 04:12:16;;;;;;;10.43;5.50;;;;;;;9.77;96.32;98262.28;6102538;23;20049;-93
2023/04/18 04:14:42;;;;;;;9.90;5.50;;;;;;;9.54;96.83;98218.75;6100357;23;20026;-93
2023/04/18 04:17:09;;;;;;;8.68;6.22;;;;;;;9.50;96.82;98219.75;6101819;23;20022;-93
2023/04/18 04:19:35;;;;;;;10.05;6.00;;;;;;;9.63;96.91;98246.78;6101678;23;20022;-93
2023/04/18 04:22:01;;;;;;;10.43;5.90;;;;;;;9.57;96.96;98246.97;6103078;23;20501;-92
2023/04/18 04:24:28;;;;;;;9.13;5.70;;;;;;;9.41;97.27;98214.72;6102463;23;20022;-92
2023/04/18 04:26:55;;;;;;;12.88;6.00;;;;;;;9.54;97.48;98245.28;6102729;23;20023;-93
2023/04/18 04:29:22;;;;;;;11.35;6.50;;;;;;;9.29;97.62;98202.72;6102635;23;20027;-92
2023/04/18 04:31:48;;;;;;;11.18;5.80;;;;;;;9.37;97.97;98213.97;6102352;23;20014;-93
2023/04/18 04:34:15;;;;;;;8.05;5.55;;;;;;;9.52;97.86;98241.81;6102536;23;20085;-93
2023/04/18 04:36:42;;;;;;;7.65;5.40;;;;;;;9.55;97.88;98254.13;6102770;23;20432;-94
2023/04/18 04:39:11;;;;;;;7.82;5.50;;;;;;;9.45;98.71;98257.06;6102577;23;20437;-94
2023/04/18 04:41:38;;;;;;;9.18;5.57;;;;;;;9.66;95.21;98271.44;6102588;23;20080;-93
2023/04/18 04:44:04;;;;;;;11.43;6.70;;;;;;;9.85;91.40;98266.41;6102448;23;20023;-93
2023/04/18 04:46:30;;;;;;;10.43;6.13;;;;;;;9.89;91.99;98264.53;6102244;23;20061;-92
2023/04/18 04:48:56;;;;;;;9.60;6.07;;;;;;;9.86;93.19;98261.97;6102476;23;20006;-92
2023/04/18 04:51:24;;;;;;;9.18;5.53;;;;;;;9.79;94.12;98271.06;6102196;23;20109;-93
2023/04/18 04:53:52;;;;;;;8.48;5.97;;;;;;;9.70;93.86;98258.09;6102246;23;20014;-93
2023/04/18 04:56:19;;;;;;;9.63;5.82;;;;;;;9.84;94.60;98280.59;6101583;23;20026;-95
2023/04/18 04:58:46;;;;;;;9.38;6.10;;;;;;;9.79;90.80;98255.97;6101059;23;20022;-93
2023/04/18 05:01:11;;;;;;;7.95;5.60;;;;;;;9.77;92.53;98254.31;6102022;23;20034;-92
2023/04/18 05:03:37;;;;;;;8.32;5.97;;;;;;;9.88;91.24;98252.16;6101554;23;20014;-94
2023/04/18 05:06:04;;;;;;;9.70;6.28;;;;;;;9.87;93.48;98250.44;6101244;23;20045;-93
2023/04/18 05:08:31;;;;;;;10.00;6.00;;;;;;;10.08;93.61;98286.03;6101465;23;20050;-93
2023/04/18 05:10:57;;;;;;;9.60;6.78;;;;;;;10.06;93.16;98279.91;6101653;23;20022;-93
2023/04/18 05:13:23;;;;;;;9.90;6.43;;;;;;;10.19;92.85;98293.66;6100835;23;20018;-93
2023/04/18 05:15:51;;;;;;;8.48;6.03;;;;;;;10.26;88.43;98292.56;6102790;23;20101;-92
2023/04/18 05:18:20;;;;;;;9.02;6.22;;;;;;;10.37;87.55;98289.56;6102344;23;20082;-93
2023/04/18 05:20:46;;;;;;;12.27;6.72;;;;;;;10.35;87.08;98276.31;6102065;23;20018;-93
2023/04/18 05:23:12;;;;;;;9.15;6.55;;;;;;;10.37;85.42;98249.69;6103079;23;20125;-94
2023/04/18 05:25:39;;;;;;;10.05;6.93;;;;;;;10.50;83.86;98253.66;6102949;23;20022;-94
2023/04/18 05:28:07;;;;;;;12.32;7.68;;;;;;;10.77;82.67;98288.16;6103152;23;20018;-92
2023/04/18 05:30:33;;;;;;;10.63;6.82;;;;;;;10.67;82.57;98258.41;6102451;23;20009;-94
2023/04/18 05:32:59;;;;;;;11.57;7.13;;;;;;;10.95;81.97;98303.50;6102522;23;20322;-95
2023/04/18 05:35:25;;;;;;;12.70;7.60;;;;;;;11.03;81.00;98303.19;6101691;23;20022;-94
2023/04/18 05:37:51;;;;;;;10.50;6.82;;;;;;;10.81;80.51;98263.19;6100167;23;20357;-93
2023/04/18 05:40:17;;;;;;;10.35;7.28;;;;;;;10.95;80.57;98278.66;6101360;23;20025;-93
2023/04/18 05:42:44;;;;;;;11.15;7.38;;;;;;;11.21;80.53;98321.16;6101259;23;20026;-95
2023/04/18 05:45:10;;;;;;;11.30;6.97;;;;;;;11.14;80.65;98303.66;6125498;23;20022;-94
2023/04/18 05:47:36;;;;;;;12.60;6.80;;;;;;;10.94;80.49;98268.94;6101649;23;20022;-94
2023/04/18 05:50:03;;;;;;;11.45;7.22;;;;;;;11.14;80.75;98306.31;6100718;23;20023;-92
2023/04/18 05:52:30;;;;;;;10.95;7.28;;;;;;;11.13;80.74;98312.59;6101245;23;20110;-93
2023/04/18 05:54:55;;;;;;;11.73;7.60;;;;;;;11.17;81.12;98313.31;6100530;23;20352;-93
2023/04/18 05:57:21;;;;;;;12.30;6.80;;;;;;;11.04;81.34;98286.31;6101175;23;20021;-93
2023/04/18 05:59:49;;;;;;;9.85;6.68;;;;;;;11.19;81.11;98300.81;6100683;23;20080;-94
2023/04/18 06:02:15;;;;;;;11.05;7.40;;;;;;;11.33;81.42;98333.13;6099759;23;20127;-93
2023/04/18 06:04:41;;;;;;;12.13;7.53;;;;;;;11.34;81.35;98331.34;6100207;23;20018;-92
2023/04/18 06:07:08;;;;;;;11.25;7.25;;;;;;;11.13;82.56;98344.50;6099979;23;20057;-94
2023/04/18 06:09:34;;;;;;;11.73;7.53;;;;;;;11.04;82.18;98339.53;6099919;23;20014;-94
2023/04/18 06:12:00;;;;;;;11.27;6.47;;;;;;;10.83;82.02;98293.28;6100206;23;20026;-93
2023/04/18 06:14:26;;;;;;;12.88;7.32;;;;;;;11.04;82.11;98320.91;6099200;23;20033;-92
2023/04/18 06:16:54;;;;;;;9.55;7.13;;;;;;;11.10;81.00;98307.34;6101152;23;20030;-93
2023/04/18 06:19:20;;;;;;;11.52;6.72;;;;;;;11.35;81.19;98338.41;6104603;23;20112;-94
2023/04/18 06:21:47;;;;;;;11.10;7.78;;;;;;;11.04;82.26;98304.94;6103301;23;20018;-93
2023/04/18 06:24:15;;;;;;;10.02;7.47;;;;;;;11.36;82.52;98350.78;6101944;23;20515;-95
2023/04/18 06:26:41;;;;;;;10.90;7.40;;;;;;;11.52;81.07;98346.63;6100528;23;20029;-94
2023/04/18 06:29:07;;;;;;;11.80;7.68;;;;;;;11.54;80.60;98323.47;6100704;23;20022;-93
2023/04/18 06:31:33;;;;;;;13.32;7.90;;;;;;;11.65;80.67;98317.75;6101428;23;20022;-94
2023/04/18 06:34:00;;;;;;;11.27;7.20;;;;;;;11.80;80.03;98317.16;6101580;23;20029;-93
2023/04/18 06:36:27;;;;;;;11.60;8.02;;;;;;;12.01;79.01;98335.88;6101196;23;20098;-94
2023/04/18 06:38:53;;;;;;;10.18;6.75;;;;;;;12.00;77.35;98320.84;6101596;23;20046;-94
2023/04/18 06:41:21;;;;;;;12.43;7.32;;;;;;;12.03;77.64;98320.72;6100824;23;20087;-93
2023/04/18 06:43:47;;;;;;;10.32;7.43;;;;;;;12.17;76.98;98342.34;6100939;23;20029;-93
2023/04/18 06:46:13;;;;;;;11.27;7.03;;;;;;;12.11;76.21;98330.13;6100915;23;20018;-93
2023/04/18 06:48:39;;;;;;;10.05;7.00;;;;;;;12.11;75.94;98316.81;6100714;23;20006;-93
2023/04/18 06:51:06;;;;;;;9.77;6.97;;;;;;;12.31;75.30;98342.66;6100923;23;20109;-94
2023/04/18 06:53:32;;;;;;;11.00;7.38;;;;;;;12.22;75.69;98335.03;6099607;23;20101;-92
2023/04/18 06:55:58;;;;;;;9.93;6.65;;;;;;;12.24;74.57;98332.31;6099020;23;20025;-91
2023/04/18 06:58:24;;;;;;;9.65;6.90;;;;;;;12.44;73.99;98335.00;6101830;23;20068;-94
2023/04/18 07:00:50;;;;;;;9.90;6.72;;;;;;;12.59;74.30;98356.66;6100341;23;20042;-93
2023/04/18 07:03:20;;;;;;;10.52;6.85;;;;;;;12.62;74.30;98364.50;6105814;23;20026;-92
2023/04/18 07:05:49;;;;;;;11.70;7.13;;;;;;;12.61;74.28;98362.78;6106569;23;20018;-92
2023/04/18 07:08:17;;;;;;;10.20;6.55;;;;;;;12.47;76.18;98350.91;6104256;23;20028;-92
2023/04/18 07:11:03;;;;;;;15.13;7.22;;;;;;;12.63;75.79;98360.94;6103269;23;20347;-93
2023/04/18 07:13:40;;;;;;;10.95;6.68;;;;;;;12.42;76.03;98326.19;6108588;23;20022;-94
2023/04/18 07:16:17;;;;;;;10.43;7.28;;;;;;;12.70;76.34;98375.75;6109358;23;20050;-93
2023/04/18 07:18:50;;;;;;;14.10;7.22;;;;;;;12.52;76.91;98343.56;6107888;23;20037;-96
2023/04/18 07:21:22;;;;;;;10.82;6.53;;;;;;;12.70;76.28;98365.94;6108244;23;20516;-94
2023/04/18 07:23:51;;;;;;;12.95;7.57;;;;;;;12.67;76.97;98371.41;6107121;23;20021;-93
2023/04/18 07:26:21;;;;;;;16.25;8.95;;;;;;;12.49;77.93;98343.72;6106140;23;20030;-94
2023/04/18 07:28:59;;;;;;;11.55;6.75;;;;;;;12.52;77.63;98348.03;6107411;23;20018;-94
2023/04/18 07:31:44;;;;;;;11.55;7.55;;;;;;;12.67;76.45;98354.53;6107228;23;20018;-94
2023/04/18 07:34:28;;;;;;;15.65;7.85;;;;;;;12.52;77.04;98335.56;6106250;23;20115;-94
2023/04/18 07:36:54;;;;;;;12.23;7.43;;;;;;;12.46;77.67;98324.28;6099780;23;20018;-93
2023/04/18 07:39:21;;;;;;;11.48;7.38;;;;;;;12.85;77.10;98371.56;6101608;23;20033;-93
2023/04/18 07:41:47;;;;;;;11.30;7.40;;;;;;;12.82;77.31;98361.88;6101674;23;20029;-92
2023/04/18 07:44:13;;;;;;;10.68;7.03;;;;;;;13.04;75.17;98358.28;6101586;23;20030;-94
2023/04/18 07:46:39;;;;;;;11.85;7.20;;;;;;;13.05;75.86;98373.34;6101620;23;20029;-94
2023/04/18 07:49:05;;;;;;;10.25;6.95;;;;;;;13.04;76.08;98366.31;6102650;23;20049;-93
2023/04/18 07:51:31;;;;;;;10.85;7.05;;;;;;;13.09;76.24;98373.16;6103047;23;20361;-93
2023/04/18 07:53:58;;;;;;;12.95;7.40;;;;;;;13.02;75.52;98349.47;6101627;23;20357;-93
2023/04/18 07:56:27;;;;;;;12.13;7.63;;;;;;;13.17;74.50;98359.47;6102176;23;20030;-95
2023/04/18 07:58:53;;;;;;;;;;;;;;;13.47;74.48;98389.34;6102162;23;20010;-94
2023/04/18 08:01:22;;;;;;;11.35;7.22;;;;;;;13.14;74.91;98352.50;6101110;23;19968;-93
2023/04/18 08:03:48;;;;;;;15.07;7.80;;;;;;;13.55;73.75;98380.97;6101314;23;20449;-93
2023/04/18 08:06:15;;;;;;;11.80;7.10;;;;;;;13.53;74.06;98362.34;6101140;23;20029;-91
2023/04/18 08:08:41;;;;;;;16.05;8.20;;;;;;;13.74;73.53;98373.84;6102206;23;20109;-94
2023/04/18 08:11:07;;;;;;;13.30;7.75;;;;;;;13.76;74.40;98360.41;6102902;23;20025;-93
2023/04/18 08:13:34;;;;;;;13.70;7.53;;;;;;;14.00;73.73;98362.88;6102372;23;20022;-93
2023/04/18 08:16:02;;;;;;;14.88;7.25;;;;;;;14.25;73.46;98367.88;6101765;23;20029;-93
2023/04/18 08:18:27;;;;;;;83.57;19.60;;;;;;;13.96;71.90;98348.78;6102048;23;20085;-92
2023/04/18 08:20:53;;;;;;;18.63;8.65;;;;;;;14.06;72.38;98390.19;6102872;23;20030;-93
2023/04/18 08:23:19;;;;;;;14.05;8.18;;;;;;;13.80;73.58;98380.72;6101736;23;20038;-92
2023/04/18 08:25:46;;;;;;;13.88;8.57;;;;;;;13.91;72.91;98393.56;6101235;23;20022;-93
2023/04/18 08:28:12;;;;;;;13.23;8.50;;;;;;;13.70;72.45;98403.44;6102068;23;20077;-93
2023/04/18 08:30:50;;;;;;;12.27;7.50;;;;;;;13.75;72.78;98401.44;6100791;23;20018;-92
2023/04/18 08:33:17;;;;;;;13.10;8.07;;;;;;;13.72;73.19;98404.25;6102101;23;20032;-93
2023/04/18 08:35:43;;;;;;;13.73;7.75;;;;;;;13.88;73.38;98385.69;6101355;23;20057;-93
2023/04/18 08:38:09;;;;;;;10.63;6.75;;;;;;;13.79;72.87;98365.59;6102306;23;20026;-93
2023/04/18 08:40:36;;;;;;;12.77;6.97;;;;;;;14.05;72.04;98376.88;6101997;23;20053;-94
2023/04/18 08:43:08;;;;;;;11.27;7.05;;;;;;;14.42;68.47;98399.19;6102215;23;20029;-95
2023/04/18 08:45:35;;;;;;;12.85;8.07;;;;;;;14.06;67.92;98408.03;6102228;23;20022;-92
2023/04/18 08:48:03;;;;;;;10.55;6.85;;;;;;;13.89;67.92;98390.09;6104888;23;20037;-93
2023/04/18 08:50:28;;;;;;;11.18;6.63;;;;;;;14.04;66.50;98386.72;6104286;23;20045;-94
2023/04/18 08:52:55;;;;;;;9.45;6.32;;;;;;;13.91;65.48;98374.88;6106238;23;20018;-95
2023/04/18 08:55:21;;;;;;;10.90;6.90;;;;;;;13.55;66.65;98364.94;6106414;23;20026;-94
2023/04/18 08:57:49;;;;;;;13.52;6.70;;;;;;;13.95;65.58;98411.22;6107622;23;20082;-94
2023/04/18 09:00:17;;;;;;;10.70;6.18;;;;;;;13.73;65.91;98374.78;6106687;23;20018;-94
2023/04/18 09:02:43;;;;;;;9.35;6.25;;;;;;;13.87;65.69;98398.19;6106248;23;20030;-95
2023/04/18 09:05:12;;;;;;;10.07;6.00;;;;;;;13.87;65.27;98383.97;6106907;23;20078;-95
2023/04/18 09:07:39;;;;;;;10.38;5.95;;;;;;;13.86;65.58;98384.91;6106991;23;20023;-94
2023/04/18 09:10:06;;;;;;;7.63;5.38;;;;;;;13.88;65.70;98391.03;6106860;23;20030;-93
2023/04/18 09:12:41;;;;;;;10.43;6.40;;;;;;;13.95;67.37;98411.22;6106410;23;20027;-92
2023/04/18 09:15:13;;;;;;;10.05;5.90;;;;;;;13.99;66.02;98391.41;6106669;23;20029;-94
2023/04/18 09:17:42;;;;;;;9.65;6.32;;;;;;;14.09;64.99;98402.53;6106145;23;20018;-92
2023/04/18 09:20:09;;;;;;;7.53;5.50;;;;;;;14.25;64.84;98424.06;6106618;23;20085;-93
2023/04/18 09:22:49;;;;;;;9.38;5.40;;;;;;;14.04;64.69;98380.50;6106202;23;20061;-93
2023/04/18 09:25:28;;;;;;;8.10;5.95;;;;;;;14.26;64.72;98373.19;6106431;23;20038;-94
2023/04/18 09:27:54;;;;;;;;;;;;;;;14.57;62.86;98417.19;6107009;23;20019;-93
2023/04/18 09:30:33;;;;;;;8.65;5.75;;;;;;;14.36;63.54;98378.97;6105692;23;19917;-91
2023/04/18 09:33:02;;;;;;;8.00;4.95;;;;;;;14.57;62.62;98426.09;6102968;23;20058;-92
2023/04/18 09:35:28;;;;;;;9.52;5.45;;;;;;;14.46;63.42;98425.69;6102520;23;20033;-91
2023/04/18 09:37:56;;;;;;;7.63;5.20;;;;;;;14.21;63.46;98393.94;6102459;23;20023;-91
2023/04/18 09:40:22;;;;;;;7.85;5.18;;;;;;;14.34;63.80;98424.50;6100524;23;20626;-92
2023/04/18 09:42:52;;;;;;;8.15;5.45;;;;;;;14.30;64.55;98411.34;6101254;23;20027;-93
2023/04/18 09:45:17;;;;;;;9.48;5.93;;;;;;;14.22;64.69;98427.75;6100471;23;20057;-92
2023/04/18 09:47:43;;;;;;;9.85;5.35;;;;;;;13.92;66.48;98408.66;6098956;23;20014;-94
2023/04/18 09:50:10;;;;;;;10.65;6.22;;;;;;;13.92;66.58;98419.34;6100859;23;20053;-93
2023/04/18 09:52:37;;;;;;;8.38;5.45;;;;;;;13.68;67.05;98418.66;6100622;23;20018;-93
2023/04/18 09:55:07;;;;;;;8.95;5.25;;;;;;;13.72;66.41;98426.47;6103747;23;20052;-91
2023/04/18 09:57:34;;;;;;;9.40;5.50;;;;;;;13.82;67.04;98444.78;6103834;23;20025;-94
2023/04/18 10:00:12;;;;;;;9.45;5.85;;;;;;;13.69;67.05;98415.09;6101749;23;20014;-93
2023/04/18 10:02:47;;;;;;;8.00;5.47;;;;;;;13.62;66.80;98406.47;6101972;23;20045;-94
2023/04/18 10:05:14;;;;;;;8.00;5.20;;;;;;;13.65;67.18;98414.34;6103460;23;20022;-91
2023/04/18 10:07:42;;;;;;;8.40;5.53;;;;;;;13.76;67.58;98436.09;6099789;23;20723;-93
2023/04/18 10:10:10;;;;;;;12.23;6.13;;;;;;;13.85;66.31;98450.84;6099989;23;20385;-92
2023/04/18 10:12:37;;;;;;;9.07;5.80;;;;;;;13.81;66.10;98438.56;6101480;23;20061;-93
2023/04/18 10:15:05;;;;;;;7.90;5.72;;;;;;;13.87;65.16;98422.25;6101078;23;20019;-92
2023/04/18 10:17:41;;;;;;;8.43;5.30;;;;;;;14.03;64.90;98438.47;6101154;23;20029;-94
2023/04/18 10:20:09;;;;;;;8.63;5.60;;;;;;;13.88;64.93;98424.00;6100406;23;20049;-93
2023/04/18 10:22:35;;;;;;;9.40;6.47;;;;;;;14.02;65.22;98442.06;6100901;23;20026;-95
2023/04/18 10:25:01;;;;;;;7.95;5.70;;;;;;;13.99;64.88;98439.53;6101245;23;20026;-94
2023/04/18 10:27:57;;;;;;;8.30;5.97;;;;;;;14.04;65.49;98453.56;6100670;23;20026;-92
2023/04/18 10:30:50;;;;;;;8.65;5.45;;;;;;;14.04;65.54;98458.91;6102453;23;20023;-93
2023/04/18 10:33:29;;;;;;;11.32;6.90;;;;;;;14.07;64.80;98431.16;6102700;23;20069;-94
2023/04/18 10:35:56;;;;;;;9.70;6.07;;;;;;;13.95;65.10;98405.88;6103903;23;20097;-93
2023/04/18 10:38:22;;;;;;;9.15;5.38;;;;;;;14.26;64.63;98447.19;6104626;23;20031;-95
2023/04/18 10:40:48;;;;;;;11.63;6.60;;;;;;;14.08;65.25;98411.50;6104544;23;20018;-92
2023/04/18 10:43:16;;;;;;;10.20;6.50;;;;;;;14.11;64.25;98409.53;6103894;23;20585;-93
2023/04/18 10:45:42;;;;;;;12.02;7.93;;;;;;;14.18;64.95;98424.38;6102531;23;20022;-93
2023/04/18 10:48:24;;;;;;;9.23;6.30;;;;;;;14.20;65.14;98410.03;6102684;23;20069;-94
2023/04/18 10:51:13;;;;;;;9.52;6.32;;;;;;;14.56;65.58;98451.13;6102392;23;20414;-94
2023/04/18 10:53:45;;;;;;;9.43;7.00;;;;;;;14.64;67.10;98442.72;6103829;23;20468;-93
2023/04/18 10:56:13;;;;;;;10.10;6.65;;;;;;;14.77;66.09;98440.31;6105753;23;20022;-93
2023/04/18 10:58:43;;;;;;;10.03;6.20;;;;;;;14.87;65.07;98425.50;6103567;23;20022;-94
2023/04/18 11:01:13;;;;;;;8.88;6.53;;;;;;;14.84;68.65;98406.09;6103046;23;20394;-93
2023/04/18 11:03:39;;;;;;;9.65;6.57;;;;;;;15.08;71.90;98430.75;6102956;23;19999;-93
2023/04/18 11:06:05;;;;;;;9.85;6.82;;;;;;;14.96;70.48;98419.72;6102414;23;20064;-94
2023/04/18 11:08:31;;;;;;;10.60;7.10;;;;;;;14.94;69.40;98399.28;6105506;23;20457;-94
2023/04/18 11:10:58;;;;;;;10.30;6.72;;;;;;;14.84;67.44;98392.69;6104851;23;20022;-94
2023/04/18 11:13:24;;;;;;;9.20;6.60;;;;;;;14.76;67.01;98393.94;6106903;23;20029;-94
2023/04/18 11:15:53;;;;;;;8.98;6.03;;;;;;;14.89;67.11;98428.97;6105250;23;20026;-93
2023/04/18 11:18:22;;;;;;;11.40;7.93;;;;;;;14.83;67.79;98417.72;6104491;23;20018;-93
2023/04/18 11:20:50;;;;;;;11.25;7.75;;;;;;;14.70;70.53;98409.44;6106829;23;20019;-94
2023/04/18 11:23:19;;;;;;;10.20;6.97;;;;;;;14.74;70.36;98414.53;6103846;23;20111;-92
2023/04/18 11:25:45;;;;;;;10.43;6.70;;;;;;;14.91;69.11;98424.41;6102799;23;20022;-93
2023/04/18 11:28:12;;;;;;;9.77;6.15;;;;;;;14.86;68.55;98405.06;6103506;23;20126;-94
2023/04/18 11:30:39;;;;;;;9.75;6.53;;;;;;;15.12;67.78;98429.66;6102458;23;20026;-93
2023/04/18 11:33:07;;;;;;;9.88;6.47;;;;;;;15.30;66.29;98404.56;6104262;23;20019;-93